NCAR-RAP Real-Time Weather Data

Output produced by METARs form (10 April 2020  07:16 UTC)
found at http://weather.rap.ucar.edu/surface/
 
KRIW 100653Z AUTO 31010KT 10SM CLR 03/M03 A2997 RMK AO2 SLP136 T00281028 401441033
KRIW 100553Z AUTO 29006KT 10SM CLR 03/M04 A2997 RMK AO2 SLP141 T00281044 10139 20028 58003
KRIW 100453Z AUTO 35004KT 10SM CLR 06/M05 A2998 RMK AO2 SLP142 T00561050
KRIW 100353Z AUTO 02006KT 10SM CLR 07/M05 A2999 RMK AO2 SLP145 T00721050
KRIW 100253Z AUTO 01005KT 10SM CLR 08/M04 A2998 RMK AO2 SLP148 T00831044 55001
KRIW 100153Z AUTO 00000KT 10SM CLR 12/M04 A2997 RMK AO2 SLP141 T01171039
KRIW 100053Z AUTO 00000KT 10SM CLR 13/M04 A2998 RMK AO2 SLP144 T01331039
KRIW 092353Z AUTO 08003KT 10SM CLR 14/M04 A2999 RMK AO2 SLP145 T01391039 10144 20083 56022
KRIW 092253Z AUTO 00000KT 10SM CLR 13/M04 A3000 RMK AO2 SLP153 T01281044
KRIW 092153Z AUTO VRB04KT 10SM CLR 13/M04 A3003 RMK AO2 SLP158 T01331039
KRIW 092053Z AUTO 26003KT 10SM CLR 12/M04 A3007 RMK AO2 SLP175 T01171044 58028
KRIW 091953Z AUTO VRB03KT 10SM CLR 11/M04 A3010 RMK AO2 SLP187 T01061044
KRIW 091853Z AUTO VRB04KT 10SM CLR 10/M05 A3014 RMK AO2 SLP199 T01001050
KRIW 091753Z AUTO 00000KT 10SM CLR 08/M04 A3016 RMK AO2 SLP210 T00831044 10083 21033 58008
KRIW 091653Z AUTO VRB03KT 10SM CLR 07/M04 A3019 RMK AO2 SLP215 T00671044
KRIW 091553Z AUTO 05007KT 10SM CLR 04/M04 A3020 RMK AO2 SLP225 T00441044
KRIW 091453Z AUTO 06009KT 10SM CLR 02/M04 A3019 RMK AO2 SLP224 T00171044 53012
KRIW 091353Z AUTO 04008KT 10SM CLR M01/M05 A3017 RMK AO2 SLP218 T10061050
KRIW 091253Z AUTO 03007KT 10SM CLR M03/M06 A3016 RMK AO2 SLP211 T10281056
KRIW 091153Z AUTO 01005KT 10SM CLR M02/M06 A3015 RMK AO2 SLP202 T10221056 10028 21028 53002
KRIW 091053Z AUTO 02006KT 10SM CLR M02/M05 A3014 RMK AO2 SLP194 T10171050
KRIW 090953Z AUTO 03007KT 10SM CLR M01/M05 A3013 RMK AO2 SLP188 T10061050